createdAt,value
2019-03-08T00:01:23.857Z,2.87
2019-03-08T00:03:50.926Z,2.33
2019-03-08T00:06:17.976Z,2.63
2019-03-08T00:08:45.272Z,3.03
2019-03-08T00:11:12.312Z,1.87
2019-03-08T00:13:39.434Z,2.80
2019-03-08T00:16:06.519Z,3.00
2019-03-08T00:18:33.585Z,3.80
2019-03-08T00:21:00.745Z,3.13
2019-03-08T00:23:27.879Z,3.00
2019-03-08T00:25:55.042Z,3.07
2019-03-08T00:28:22.094Z,2.43
2019-03-08T00:30:49.222Z,3.00
2019-03-08T00:33:34.684Z,3.53
2019-03-08T00:36:01.849Z,3.13
2019-03-08T00:38:29.106Z,2.73
2019-03-08T00:40:56.150Z,3.07
2019-03-08T00:43:23.352Z,3.17
2019-03-08T00:45:50.626Z,3.20
2019-03-08T00:48:17.686Z,3.80
2019-03-08T00:50:44.794Z,2.80
2019-03-08T00:53:11.904Z,3.20
2019-03-08T00:55:39.185Z,2.87
2019-03-08T00:58:06.249Z,2.23
2019-03-08T01:00:33.376Z,2.77
2019-03-08T01:03:00.635Z,3.17
2019-03-08T01:05:27.903Z,2.80
2019-03-08T01:07:55.106Z,3.37
2019-03-08T01:10:23.091Z,3.00
2019-03-08T01:12:50.364Z,3.40
2019-03-08T01:15:17.746Z,3.30
2019-03-08T01:17:44.819Z,3.20
2019-03-08T01:20:13.225Z,3.90
2019-03-08T01:22:40.346Z,3.37
2019-03-08T01:25:07.644Z,3.17
2019-03-08T01:27:34.894Z,3.73
2019-03-08T01:30:02.039Z,4.30
2019-03-08T01:32:29.118Z,4.10
2019-03-08T01:35:38.497Z,4.47
2019-03-08T01:38:05.582Z,3.67
2019-03-08T01:40:32.617Z,3.90
2019-03-08T01:42:59.670Z,4.43
2019-03-08T01:45:26.961Z,4.70
2019-03-08T01:47:54.000Z,4.87
2019-03-08T01:50:21.185Z,3.20
2019-03-08T01:52:48.294Z,2.80
2019-03-08T01:59:03.564Z,3.77
2019-03-08T02:01:30.851Z,5.43
2019-03-08T02:03:59.105Z,5.90
2019-03-08T02:06:26.403Z,5.70
2019-03-08T02:08:53.595Z,6.77
2019-03-08T02:11:27.114Z,7.47
2019-03-08T02:13:54.168Z,7.40
2019-03-08T02:16:21.252Z,7.97
2019-03-08T02:18:50.839Z,9.03
2019-03-08T02:21:18.095Z,6.33
2019-03-08T02:23:45.183Z,5.50
2019-03-08T02:26:12.232Z,6.43
2019-03-08T02:28:39.280Z,6.07
2019-03-08T02:31:06.403Z,6.97
2019-03-08T02:33:33.449Z,7.13
2019-03-08T02:36:00.505Z,6.87
2019-03-08T02:38:27.697Z,6.80
2019-03-08T02:40:54.751Z,6.00
2019-03-08T02:43:21.829Z,6.13
2019-03-08T02:45:48.941Z,5.60
2019-03-08T02:48:15.982Z,5.17
2019-03-08T02:50:43.039Z,5.63
2019-03-08T02:53:10.357Z,5.23
2019-03-08T02:55:37.409Z,5.30
2019-03-08T02:58:04.448Z,5.47
2019-03-08T03:00:36.217Z,5.53
2019-03-08T03:03:03.270Z,5.63
2019-03-08T03:06:07.163Z,5.90
2019-03-08T03:08:41.589Z,6.43
2019-03-08T03:11:08.632Z,5.67
2019-03-08T03:13:35.763Z,6.00
2019-03-08T03:16:03.301Z,6.00
2019-03-08T03:18:30.358Z,5.33
2019-03-08T03:20:57.455Z,5.17
2019-03-08T03:23:24.513Z,5.50
2019-03-08T03:25:51.559Z,4.70
2019-03-08T03:28:18.647Z,4.80
2019-03-08T03:30:45.777Z,5.80
2019-03-08T03:33:13.034Z,4.40
2019-03-08T03:35:40.100Z,5.37
2019-03-08T03:38:07.149Z,4.77
2019-03-08T03:40:34.194Z,5.10
2019-03-08T03:43:01.300Z,5.73
2019-03-08T03:45:28.358Z,5.40
2019-03-08T03:48:50.969Z,4.73
2019-03-08T03:51:18.039Z,5.33
2019-03-08T03:53:45.333Z,5.00
2019-03-08T03:56:12.446Z,6.73
2019-03-08T03:58:39.491Z,5.77
2019-03-08T04:01:26.258Z,5.70
2019-03-08T04:03:53.316Z,6.33
2019-03-08T04:06:20.673Z,6.00
2019-03-08T04:08:47.750Z,6.20
2019-03-08T04:11:14.797Z,6.97
2019-03-08T04:13:42.994Z,7.43
2019-03-08T04:16:10.098Z,6.57
2019-03-08T04:18:37.128Z,6.50
2019-03-08T04:21:04.174Z,6.20
2019-03-08T04:23:32.319Z,6.27
2019-03-08T04:25:59.593Z,6.53
2019-03-08T04:28:26.646Z,6.60
2019-03-08T04:30:53.723Z,6.50
2019-03-08T04:33:20.774Z,7.27
2019-03-08T04:36:30.344Z,7.83
2019-03-08T04:38:57.436Z,7.03
2019-03-08T04:41:24.486Z,6.93
2019-03-08T04:43:51.593Z,7.53
2019-03-08T04:46:18.951Z,7.10
2019-03-08T04:48:45.989Z,6.73
2019-03-08T04:51:13.066Z,7.83
2019-03-08T04:53:40.180Z,6.90
2019-03-08T04:56:07.562Z,8.03
2019-03-08T04:58:34.696Z,7.57
2019-03-08T05:01:01.742Z,7.50
2019-03-08T05:03:29.178Z,7.87
2019-03-08T05:05:56.320Z,8.30
2019-03-08T05:08:23.377Z,7.37
2019-03-08T05:10:51.529Z,7.47
2019-03-08T05:13:18.605Z,7.33
2019-03-08T05:15:45.653Z,7.60
2019-03-08T05:18:12.701Z,7.47
2019-03-08T05:20:40.077Z,7.93
2019-03-08T05:23:07.142Z,6.70
2019-03-08T05:25:34.193Z,6.83
2019-03-08T05:28:01.315Z,6.93
2019-03-08T05:30:28.367Z,6.23
2019-03-08T05:32:55.416Z,5.57
2019-03-08T05:35:22.507Z,6.60
2019-03-08T05:37:49.952Z,5.47
2019-03-08T05:40:17.007Z,6.10
2019-03-08T05:42:44.109Z,5.60
2019-03-08T05:45:12.587Z,5.97
2019-03-08T05:47:39.647Z,5.53
2019-03-08T05:50:07.055Z,6.47
2019-03-08T05:52:34.216Z,5.37
2019-03-08T05:55:01.720Z,6.93
2019-03-08T05:57:28.850Z,5.57
2019-03-08T05:59:55.894Z,5.47
2019-03-08T06:02:22.933Z,6.70
2019-03-08T06:04:50.017Z,5.67
2019-03-08T06:08:13.739Z,6.23
2019-03-08T06:10:40.849Z,6.67
2019-03-08T06:13:07.934Z,6.67
2019-03-08T06:15:35.213Z,6.50
2019-03-08T06:18:02.694Z,7.43
2019-03-08T06:20:29.742Z,6.20
2019-03-08T06:22:56.801Z,6.80
2019-03-08T06:25:23.968Z,7.00
2019-03-08T06:27:52.778Z,7.03
2019-03-08T06:30:19.918Z,8.03
2019-03-08T06:32:47.206Z,6.57
2019-03-08T06:35:14.262Z,6.37
2019-03-08T06:37:41.507Z,6.13
2019-03-08T06:40:08.634Z,6.83
2019-03-08T06:42:35.681Z,6.40
2019-03-08T06:45:03.370Z,7.57
2019-03-08T06:47:51.609Z,5.70
2019-03-08T06:50:56.568Z,5.50
2019-03-08T06:53:23.657Z,5.97
2019-03-08T06:55:50.762Z,5.80
2019-03-08T06:58:29.317Z,5.90
2019-03-08T07:01:21.956Z,5.43
2019-03-08T07:03:49.397Z,6.13
2019-03-08T07:06:16.434Z,5.17
2019-03-08T07:08:43.532Z,5.97
2019-03-08T07:11:11.610Z,5.47
2019-03-08T07:13:38.680Z,5.57
2019-03-08T07:16:12.767Z,6.27
2019-03-08T07:18:52.057Z,6.13
2019-03-08T07:21:41.554Z,5.13
2019-03-08T07:24:21.403Z,5.93
2019-03-08T07:27:17.130Z,5.17
2019-03-08T07:30:06.570Z,5.30
2019-03-08T07:33:05.107Z,6.10
2019-03-08T07:35:57.767Z,6.10
2019-03-08T07:38:42.990Z,5.30
2019-03-08T07:41:30.796Z,6.20
2019-03-08T07:44:14.624Z,6.07
2019-03-08T07:46:57.410Z,5.53
2019-03-08T07:49:53.835Z,5.60
2019-03-08T07:52:49.248Z,6.57
2019-03-08T07:55:36.309Z,6.50
2019-03-08T07:58:25.214Z,6.87
2019-03-08T08:01:11.844Z,5.93
2019-03-08T08:04:04.685Z,5.50
2019-03-08T08:06:41.405Z,5.70
2019-03-08T08:09:31.662Z,6.43
2019-03-08T08:12:16.898Z,5.80
2019-03-08T08:14:58.484Z,6.30
2019-03-08T08:17:35.051Z,5.47
2019-03-08T08:20:16.614Z,5.63
2019-03-08T08:23:08.251Z,5.93
2019-03-08T08:25:57.734Z,5.73
2019-03-08T08:28:30.784Z,5.33
2019-03-08T08:31:17.761Z,6.73
2019-03-08T08:34:22.981Z,6.40
2019-03-08T08:37:08.409Z,5.97
2019-03-08T08:39:58.120Z,4.63
2019-03-08T08:42:49.533Z,5.40
2019-03-08T08:45:27.049Z,5.53
2019-03-08T08:48:08.962Z,4.97
2019-03-08T08:50:49.278Z,5.77
2019-03-08T08:53:29.528Z,5.90
2019-03-08T08:56:14.790Z,6.30
2019-03-08T08:58:54.857Z,5.17
2019-03-08T09:02:10.118Z,5.40
2019-03-08T09:05:12.100Z,5.40
2019-03-08T09:07:57.897Z,5.07
2019-03-08T09:10:59.699Z,5.50
2019-03-08T09:13:32.649Z,4.90
2019-03-08T09:16:17.987Z,4.97
2019-03-08T09:19:19.460Z,5.50
2019-03-08T09:21:55.787Z,5.07
2019-03-08T09:24:46.620Z,4.13
2019-03-08T09:27:36.038Z,4.60
2019-03-08T09:30:15.786Z,5.17
2019-03-08T09:33:01.032Z,5.13
2019-03-08T09:35:53.888Z,4.80
2019-03-08T09:38:43.328Z,4.27
2019-03-08T09:41:37.839Z,4.93
2019-03-08T09:44:24.493Z,4.70
2019-03-08T09:47:03.684Z,4.20
2019-03-08T09:49:51.844Z,5.53
2019-03-08T09:52:44.730Z,3.83
2019-03-08T09:55:31.268Z,4.87
2019-03-08T09:58:06.553Z,4.67
2019-03-08T10:01:05.362Z,4.37
2019-03-08T10:03:54.581Z,5.27
2019-03-08T10:06:41.251Z,4.70
2019-03-08T10:09:28.108Z,4.67
2019-03-08T10:12:20.914Z,4.87
2019-03-08T10:15:10.321Z,5.03
2019-03-08T10:17:55.981Z,3.93
2019-03-08T10:20:58.280Z,5.23
2019-03-08T10:23:32.371Z,4.50
2019-03-08T10:26:30.850Z,5.33
2019-03-08T10:29:26.000Z,4.53
2019-03-08T10:32:12.655Z,4.23
2019-03-08T10:34:51.534Z,4.57
2019-03-08T10:37:31.923Z,4.20
2019-03-08T10:40:24.845Z,3.70
2019-03-08T10:42:58.945Z,4.00
2019-03-08T10:45:45.725Z,3.53
2019-03-08T10:48:44.568Z,3.73
2019-03-08T10:51:29.668Z,3.57
2019-03-08T10:54:25.172Z,3.53
2019-03-08T10:57:05.760Z,3.37
2019-03-08T10:59:55.485Z,3.70
2019-03-08T11:03:00.519Z,3.07
2019-03-08T11:05:53.208Z,4.03
2019-03-08T11:08:49.241Z,3.40
2019-03-08T11:11:43.408Z,3.40
2019-03-08T11:14:29.044Z,2.70
2019-03-08T11:17:15.755Z,2.90
2019-03-08T11:20:05.648Z,3.83
2019-03-08T11:22:45.864Z,3.90
2019-03-08T11:25:35.002Z,3.93
2019-03-08T11:28:20.936Z,3.40
2019-03-08T11:31:02.497Z,3.10
2019-03-08T11:33:55.488Z,4.37
2019-03-08T11:36:45.498Z,3.40
2019-03-08T11:39:50.317Z,3.60
2019-03-08T11:42:30.174Z,2.43
2019-03-08T11:45:29.256Z,3.93
2019-03-08T11:48:34.143Z,3.17
2019-03-08T11:51:19.418Z,2.63
2019-03-08T11:54:06.083Z,2.97
2019-03-08T11:56:56.131Z,3.10
2019-03-08T11:59:44.337Z,3.50
2019-03-08T12:02:37.698Z,2.70
2019-03-08T12:05:19.306Z,2.57
2019-03-08T12:08:04.973Z,3.20
2019-03-08T12:11:03.909Z,2.10
2019-03-08T12:13:44.730Z,2.33
2019-03-08T12:16:34.582Z,2.70
2019-03-08T12:19:15.844Z,2.70
2019-03-08T12:21:55.409Z,3.10
2019-03-08T12:24:52.010Z,2.27
2019-03-08T12:27:48.402Z,3.37
2019-03-08T12:30:34.878Z,2.67
2019-03-08T12:33:30.601Z,3.20
2019-03-08T12:36:13.180Z,3.63
2019-03-08T12:38:55.035Z,2.77
2019-03-08T12:41:29.892Z,2.83
2019-03-08T12:44:16.656Z,3.23
2019-03-08T12:47:08.511Z,2.77
2019-03-08T12:49:48.948Z,3.07
2019-03-08T12:52:23.211Z,3.60
2019-03-08T12:55:08.844Z,2.80
2019-03-08T12:58:02.541Z,2.70
2019-03-08T13:00:36.933Z,2.90
2019-03-08T13:03:23.489Z,2.90
2019-03-08T13:06:19.664Z,3.17
2019-03-08T13:09:11.118Z,3.80
2019-03-08T13:11:38.204Z,3.60
2019-03-08T13:14:05.367Z,3.10
2019-03-08T13:16:32.460Z,3.20
2019-03-08T13:18:59.542Z,4.00
2019-03-08T13:21:26.610Z,3.37
2019-03-08T13:23:53.819Z,3.80
2019-03-08T13:26:20.922Z,3.67
2019-03-08T13:28:48.016Z,3.67
2019-03-08T13:31:15.395Z,3.80
2019-03-08T13:33:42.607Z,3.23
2019-03-08T13:36:40.811Z,3.23
2019-03-08T13:39:07.866Z,3.40
2019-03-08T13:41:34.955Z,3.53
2019-03-08T13:44:02.167Z,4.07
2019-03-08T13:46:29.359Z,3.73
2019-03-08T13:48:56.422Z,3.83
2019-03-08T13:51:23.574Z,4.73
2019-03-08T13:57:07.373Z,4.27
2019-03-08T13:59:34.743Z,4.70
2019-03-08T14:02:01.858Z,4.20
2019-03-08T14:04:28.980Z,4.10
2019-03-08T14:06:56.236Z,4.83
2019-03-08T14:09:23.341Z,4.73
2019-03-08T14:11:50.780Z,4.70
2019-03-08T14:14:17.871Z,4.63
2019-03-08T14:16:45.312Z,4.43
2019-03-08T14:19:12.490Z,4.23
2019-03-08T14:21:39.609Z,3.97
2019-03-08T14:24:06.801Z,4.30
2019-03-08T14:26:33.953Z,3.33
2019-03-08T14:29:03.264Z,3.63
2019-03-08T14:31:38.827Z,3.40
2019-03-08T14:34:05.891Z,3.83
2019-03-08T14:36:32.961Z,3.80
2019-03-08T14:39:04.213Z,3.70
2019-03-08T14:41:58.958Z,3.23
2019-03-08T14:44:45.636Z,3.50
2019-03-08T14:47:17.528Z,3.40
2019-03-08T14:49:44.696Z,3.77
2019-03-08T14:52:11.852Z,3.70
2019-03-08T14:54:42.439Z,3.50
2019-03-08T14:57:09.281Z,3.60
2019-03-08T14:59:37.055Z,4.30
2019-03-08T15:02:04.198Z,4.17
2019-03-08T15:04:33.269Z,3.90
2019-03-08T15:07:01.286Z,4.43
2019-03-08T15:09:30.722Z,3.20
2019-03-08T15:11:59.563Z,3.77
2019-03-08T15:14:30.137Z,3.63
2019-03-08T15:16:56.115Z,4.50
2019-03-08T15:19:23.479Z,4.23
2019-03-08T15:21:51.679Z,3.57
2019-03-08T15:24:18.857Z,3.40
2019-03-08T15:26:51.994Z,3.87
2019-03-08T15:29:19.105Z,3.50
2019-03-08T15:31:46.192Z,3.70
2019-03-08T15:34:14.661Z,4.53
2019-03-08T15:36:42.387Z,4.63
2019-03-08T15:39:09.456Z,4.13
2019-03-08T15:42:02.455Z,3.37
2019-03-08T15:44:32.667Z,3.70
2019-03-08T15:47:00.517Z,4.23
2019-03-08T15:49:30.550Z,5.33
2019-03-08T15:51:59.904Z,4.40
2019-03-08T15:54:27.066Z,4.23
2019-03-08T15:56:54.203Z,5.07
2019-03-08T15:59:21.368Z,4.53
2019-03-08T16:01:48.424Z,5.10
2019-03-08T16:04:15.634Z,4.40
2019-03-08T16:06:43.968Z,4.80
2019-03-08T16:09:11.700Z,5.20
2019-03-08T16:11:38.832Z,4.77
2019-03-08T16:14:08.961Z,5.00
2019-03-08T16:16:34.955Z,6.20
2019-03-08T16:19:02.077Z,6.60
2019-03-08T16:21:30.963Z,7.40
2019-03-08T16:23:58.040Z,5.83
2019-03-08T16:26:26.382Z,6.00
2019-03-08T16:28:53.665Z,6.80
2019-03-08T16:31:30.241Z,9.30
2019-03-08T16:33:58.184Z,5.77
2019-03-08T16:36:36.353Z,7.23
2019-03-08T16:39:42.469Z,6.00
2019-03-08T16:42:21.533Z,6.40
2019-03-08T16:45:06.988Z,6.63
2019-03-08T16:47:53.700Z,6.23
2019-03-08T16:50:37.157Z,6.40
2019-03-08T16:53:26.875Z,5.67
2019-03-08T16:56:14.961Z,5.70
2019-03-08T16:59:00.236Z,7.00
2019-03-08T17:01:46.141Z,7.07
2019-03-08T17:04:35.718Z,6.27
2019-03-08T17:07:22.722Z,6.07
2019-03-08T17:10:07.632Z,6.27
2019-03-08T17:12:42.413Z,6.43
2019-03-08T17:15:15.986Z,8.40
2019-03-08T17:18:08.703Z,7.87
2019-03-08T17:21:01.623Z,6.87
2019-03-08T17:23:37.477Z,6.60
2019-03-08T17:26:24.159Z,5.37
2019-03-08T17:29:10.800Z,5.93
2019-03-08T17:32:01.757Z,6.30
2019-03-08T17:34:54.499Z,5.73
2019-03-08T17:37:43.855Z,4.97
2019-03-08T17:40:30.006Z,4.57
2019-03-08T17:43:25.688Z,3.60
2019-03-08T17:46:18.062Z,3.37
2019-03-08T17:49:13.733Z,3.10
2019-03-08T17:52:05.125Z,2.87
2019-03-08T17:54:58.189Z,3.33
2019-03-08T17:57:56.888Z,3.37
2019-03-08T18:00:46.388Z,3.23
2019-03-08T18:03:45.011Z,2.53
2019-03-08T18:06:34.426Z,3.13
2019-03-08T18:09:20.130Z,2.60
2019-03-08T18:12:06.772Z,2.77
2019-03-08T18:14:51.994Z,3.20
2019-03-08T18:17:44.860Z,3.23
2019-03-08T18:20:34.269Z,5.43
2019-03-08T18:23:26.713Z,2.90
2019-03-08T18:26:16.170Z,4.90
2019-03-08T18:29:11.650Z,3.60
2019-03-08T18:31:58.286Z,3.23
2019-03-08T18:34:51.252Z,4.10
2019-03-08T18:37:36.785Z,3.43
2019-03-08T18:40:28.029Z,3.33
2019-03-08T18:43:17.993Z,2.83
2019-03-08T18:46:19.668Z,3.10
2019-03-08T18:49:15.693Z,2.70
2019-03-08T18:52:08.172Z,4.37
2019-03-08T18:54:49.015Z,3.30
2019-03-08T18:57:47.772Z,3.50
2019-03-08T19:00:40.644Z,3.83
2019-03-08T19:03:27.418Z,3.73
2019-03-08T19:06:02.615Z,3.00
2019-03-08T19:08:41.064Z,3.63
2019-03-08T19:11:17.187Z,3.67
2019-03-08T19:14:03.954Z,3.60
2019-03-08T19:16:53.294Z,4.03
2019-03-08T19:19:40.853Z,4.10
2019-03-08T19:22:25.937Z,3.73
2019-03-08T19:25:08.422Z,3.80
2019-03-08T19:27:55.075Z,4.83
2019-03-08T19:30:32.646Z,4.13
2019-03-08T19:33:22.126Z,4.20
2019-03-08T19:35:57.384Z,3.67
2019-03-08T19:38:36.511Z,4.13
2019-03-08T19:41:16.453Z,3.97
2019-03-08T19:44:17.950Z,4.00
2019-03-08T19:47:13.958Z,5.50
2019-03-08T19:50:06.912Z,4.63
2019-03-08T19:52:57.604Z,4.53
2019-03-08T19:55:47.343Z,5.17
2019-03-08T19:58:36.851Z,5.80
2019-03-08T20:01:22.064Z,4.63
2019-03-08T20:04:11.541Z,5.67
2019-03-08T20:06:58.177Z,4.67
2019-03-08T20:09:43.415Z,4.80
2019-03-08T20:12:31.930Z,5.00
2019-03-08T20:15:17.515Z,5.00
2019-03-08T20:17:53.421Z,5.87
2019-03-08T20:20:33.320Z,6.00
2019-03-08T20:23:31.753Z,5.30
2019-03-08T20:26:18.417Z,6.17
2019-03-08T20:29:17.205Z,5.40
2019-03-08T20:32:02.500Z,5.17
2019-03-08T20:34:46.328Z,5.40
2019-03-08T20:37:45.129Z,6.53
2019-03-08T20:40:30.867Z,5.83
2019-03-08T20:43:02.484Z,5.53
2019-03-08T20:45:46.416Z,5.97
2019-03-08T20:48:13.540Z,5.53
2019-03-08T20:50:40.609Z,7.40
2019-03-08T20:53:07.683Z,5.87
2019-03-08T20:55:34.805Z,6.40
2019-03-08T20:58:01.899Z,5.70
2019-03-08T21:00:29.031Z,6.47
2019-03-08T21:02:56.229Z,6.57
2019-03-08T21:05:23.480Z,6.80
2019-03-08T21:07:50.654Z,6.67
2019-03-08T21:10:17.804Z,6.03
2019-03-08T21:12:45.139Z,6.37
2019-03-08T21:15:12.692Z,6.20
2019-03-08T21:17:39.774Z,5.53
2019-03-08T21:20:08.297Z,6.57
2019-03-08T21:22:35.424Z,4.93
2019-03-08T21:25:04.509Z,4.87
2019-03-08T21:27:31.770Z,5.07
2019-03-08T21:29:59.116Z,5.90
2019-03-08T21:32:26.448Z,5.00
2019-03-08T21:34:53.560Z,5.00
2019-03-08T21:37:20.630Z,4.93
2019-03-08T21:39:47.767Z,5.00
2019-03-08T21:42:15.138Z,5.87
2019-03-08T21:44:48.281Z,5.60
2019-03-08T21:47:15.413Z,5.67
2019-03-08T21:56:55.947Z,5.43
2019-03-08T21:59:23.070Z,4.70
2019-03-08T22:01:50.170Z,4.50
2019-03-08T22:04:39.666Z,4.00
2019-03-08T22:07:06.739Z,4.40
2019-03-08T22:09:53.452Z,3.60
2019-03-08T22:12:20.529Z,3.47
2019-03-08T22:14:47.813Z,3.43
2019-03-08T22:17:15.328Z,3.97
2019-03-08T22:19:42.750Z,3.33
2019-03-08T22:22:10.111Z,3.40
2019-03-08T22:24:37.398Z,3.63
2019-03-08T22:27:04.759Z,4.50
2019-03-08T22:29:31.962Z,3.87
2019-03-08T22:31:59.101Z,3.67
2019-03-08T22:34:26.540Z,3.43
2019-03-08T22:36:53.608Z,3.90
2019-03-08T22:39:20.755Z,3.93
2019-03-08T22:41:51.268Z,4.30
2019-03-08T22:44:18.368Z,4.13
2019-03-08T22:46:45.942Z,3.90
2019-03-08T22:49:13.711Z,4.40
2019-03-08T22:51:40.882Z,3.83
2019-03-08T22:54:08.308Z,3.77
2019-03-08T22:56:35.556Z,5.23
2019-03-08T22:59:02.740Z,4.00
2019-03-08T23:01:45.494Z,3.70
2019-03-08T23:04:12.558Z,4.57
2019-03-08T23:06:39.661Z,3.90
2019-03-08T23:09:09.961Z,3.43
2019-03-08T23:11:37.173Z,3.90
2019-03-08T23:14:04.552Z,4.23
2019-03-08T23:16:31.638Z,3.13
2019-03-08T23:18:58.776Z,2.60
2019-03-08T23:21:26.148Z,2.90
2019-03-08T23:23:53.326Z,2.87
2019-03-08T23:26:20.466Z,3.50
2019-03-08T23:28:55.266Z,2.73
2019-03-08T23:31:44.951Z,3.50
2019-03-08T23:34:12.163Z,2.93
2019-03-08T23:36:39.319Z,3.10
2019-03-08T23:39:07.634Z,3.10
2019-03-08T23:41:34.709Z,3.90
2019-03-08T23:44:01.866Z,3.73
2019-03-08T23:46:29.061Z,4.57
2019-03-08T23:48:56.113Z,3.83
2019-03-08T23:51:23.264Z,3.53
2019-03-08T23:53:50.649Z,3.40
2019-03-08T23:56:17.712Z,3.70
2019-03-08T23:58:45.001Z,2.93
